Poughkeepsie, NY

1:03 PM EDT on October 01, 2014 (GMT -0400)
Arlington | Change Station
CLOSE
Current Station
Personal Weather Station
Location: Poughkeepsie, NY
Elevation: 220 ft
Nearby Weather Stations

Elev 220 ft 41.71 °N, 73.90 °W | Updated 2 minutes ago

Overcast
Overcast
62.1 °F
Feels Like 62.1 °F
N
0.0
Wind Variable Wind from South
Gusts 0.7 mph

Today
High -- | Low -- °F
--% Chance of Precip.
Yesterday
High -- | Low -- °F
Precip. -- in
6:52 AM 6:37 PM
Waxing Crescent, 49% visible
Pressure 30.06 in
Visibility 10.0 miles
Clouds Mostly Cloudy 900 ft
Overcast 1500 ft
Dew Point 62 °F
Humidity 99%
Rainfall 0.17 in
Snow Depth Not available.
UV 0.0 out of 12
Pollen .40 out of 12
PM2.5 Good
Flu Activity Not available.
METAR KPOU 011653Z 01004KT 10SM BKN009 OVC015 17/15 A3007 RMK AO2 RAE1554 CIG 007V013 SLP178 P0000 T01670150

More Conditions Fewer Conditions

Pressure 30.06 in
Visibility 10.0 miles
Clouds Mostly Cloudy 900 ft
Overcast 1500 ft
Dew Point 62 °F
Humidity 99%
Rainfall 0.17 in
Snow Depth Not available.
UV 0.0 out of 12
Pollen .40 out of 12
PM2.5 Good
Flu Activity Not available.
METAR KPOU 011653Z 01004KT 10SM BKN009 OVC015 17/15 A3007 RMK AO2 RAE1554 CIG 007V013 SLP178 P0000 T01670150

More Conditions Fewer Conditions

10-Day Weather Forecast

Almanac

Astronomy

Oct. 01, 2014 Rise Set
Actual Time 6:52 AM EDT 6:37 PM EDT
Civil Twilight 6:24 AM EDT 7:05 PM EDT
Nautical Twilight 5:52 AM EDT 7:37 PM EDT
Astronomical Twilight 5:19 AM EDT 8:09 PM EDT
Moon 1:54 PM EDT No Moon Set
Length of Visible Light 12h 40m
Length of Day
11h 44m
Tomorrow will be 2m 46s shorter.
Waxing Crescent, 49% of the Moon is Illuminated
Today
Waxing Crescent
Oct 1
First Quarter
Oct 8
Full
Oct 15
Last Quarter
Oct 23
New

Today's Extremes

State Highs State Lows

Community

WunderPhotos

Upload Photos

1,757,985 photos uploaded!

WunderBlogs® & News

By Dr. Jeff Masters
Director of Meteorology, Weather Underground
By Kari Strenfel
Meteorologist, Weather Underground
By Christopher C. Burt
Weather Historian, Weather Underground
October 1, 2014
October 1, 2014
October 1, 2014

Nearby

Air Quality

  Air Quality AQ Index Pollutant
Yesterday Good
PM2.5
Yesterday Good
OZONE
Current Good
PM2.5
Wednesday Good
PM2.5
Thursday Good
PM2.5

Snow Depth

Station Depth Elevation
No new snow has been reported.

Earthquake Activity

City Distance Mag. Time & Date
No recent earthquake activity has been reported nearby.
Minimum magnitude displayed is 2.5.

Coastal Water Temperatures

Place Temperature
No Stations Reporting

Nearby Weather Stations